| |
Missouri Department of Transportation

Social Media Facebook Twitter Flickr Blog YouTube RSS

Current METAR Information for All MoDOT Locations 
AWOS Home - General Info for all Airports
Current AWOS for all Airports - Current METAR for all Airports
Glossary - Disclaimer - Other Links


Automated Weather Observation System
Date: 07-26-2014
 
Location Current METAR Record
HANNIBAL METAR KHAE 261508Z AUTO 23008KT 10SM CLR 30/22 A2985 RMK AO2
HARRISONVILLE  No current data available
LEBANON METAR KLBO 261505Z AUTO 23015G19KT 10SM CLR 30/21 A2996 RMK AO2
MALDEN  No current data available
MARSHALL METAR KMHL 261519Z AUTO 23012KT 2 1/2SM HZ CLR 30/24 A2986 RMK AO2
MARYVILLE  No current data available
MEXICO METAR KMYJ 261459Z AUTO 24013G17KT 7SM CLR 29/25 A2987 RMK AO2
MOBERLY METAR KMBY 261459Z AUTO 22012G18KT 10SM CLR 28/22 A2986 RMK AO2
NEVADA METAR KNVD 261527Z AUTO 21014G24KT 10SM CLR 29/22 A2991 RMK AO2
PIEDMONT  No current data available
SIKESTON  No current data available
SULLIVAN METAR KUUV 261510Z AUTO 23009KT 10SM CLR 30/21 A2993 RMK AO2
WARSAW  No current data available
About Us
How Do I...
Contact Us
Missouri Department of Transportation
Central Office
105 W. Capitol Avenue
Jefferson City, MO 65102
1-888-ASK-MODOT (275-6636)
1-866-831-6277 (Motor Carrier Services)
Drivers License Offices
horz_bar
| | |
Missouri State Government
© 2013 Missouri Department of Transportation. All Rights Reserved.   Privacy Policy.
 
 
 
 
RSS FeedYoutubeBlogFlickrTwitter Facebook